createdAt,value
2023-12-24T00:59:13.286Z,99335.81
2023-12-24T01:01:40.642Z,99328.81
2023-12-24T01:04:07.253Z,99305.66
2023-12-24T01:06:33.897Z,99311.03
2023-12-24T01:09:00.487Z,99312.16
2023-12-24T01:11:28.020Z,99322.59
2023-12-24T01:13:54.654Z,99311.84
2023-12-24T01:16:21.172Z,99317.53
2023-12-24T01:18:49.035Z,99324.53
2023-12-24T01:21:15.661Z,99321.28
2023-12-24T01:23:42.273Z,99314.84
2023-12-24T01:26:08.958Z,99306.78
2023-12-24T01:28:35.510Z,99326.66
2023-12-24T01:31:02.079Z,99321.84
2023-12-24T01:33:29.246Z,99308.91
2023-12-24T01:35:55.784Z,99333.13
2023-12-24T01:38:22.440Z,99329.59
2023-12-24T01:40:48.999Z,99332.88
2023-12-24T01:43:15.629Z,99341.75
2023-12-24T01:45:42.167Z,99316.47
2023-12-24T01:48:08.798Z,99339.63
2023-12-24T01:50:37.288Z,99330.47
2023-12-24T01:53:05.064Z,99340.16
2023-12-24T01:55:32.190Z,99319.69
2023-12-24T01:57:59.566Z,99350.06
2023-12-24T02:00:26.124Z,99337.69
2023-12-24T02:02:53.159Z,99329.59
2023-12-24T02:05:20.035Z,99333.13
2023-12-24T02:07:48.327Z,99323.44
2023-12-24T02:10:14.852Z,99320.22
2023-12-24T02:12:41.473Z,99326.66
2023-12-24T02:15:08.201Z,99322.59
2023-12-24T02:17:35.688Z,99334.19
2023-12-24T02:20:02.392Z,99340.06
2023-12-24T02:22:29.228Z,99324.75
2023-12-24T02:24:57.304Z,99346.25
2023-12-24T02:27:27.587Z,99318.53
2023-12-24T02:29:57.358Z,99316.41
2023-12-24T02:32:25.971Z,99305.53
2023-12-24T02:34:52.480Z,99314.78
2023-12-24T02:37:19.185Z,99312.34
2023-12-24T02:39:46.329Z,99303.78
2023-12-24T02:42:12.920Z,99305.66
2023-12-24T02:44:40.133Z,99290.28
2023-12-24T02:47:06.811Z,99307.28
2023-12-24T02:49:33.465Z,99286.56
2023-12-24T02:51:59.946Z,99311.59
2023-12-24T02:54:26.496Z,99302.41
2023-12-24T02:56:53.079Z,99278.22
2023-12-24T02:59:19.715Z,99290.88
2023-12-24T03:01:46.223Z,99272.38
2023-12-24T03:04:12.899Z,99283.34
2023-12-24T03:06:39.441Z,99268.03
2023-12-24T03:09:05.973Z,99270.75
2023-12-24T03:11:32.555Z,99265.34
2023-12-24T03:13:59.186Z,99283.94
2023-12-24T03:16:26.363Z,99263.72
2023-12-24T03:18:52.993Z,99265.34
2023-12-24T03:21:19.592Z,99264.53
2023-12-24T03:23:46.173Z,99260.50
2023-12-24T03:26:20.428Z,99264.03
2023-12-24T03:28:47.244Z,99248.69
2023-12-24T03:31:16.894Z,99261.09
2023-12-24T03:33:44.778Z,99250.31
2023-12-24T03:36:14.791Z,99261.09
2023-12-24T03:38:41.608Z,99242.50
2023-12-24T03:41:08.321Z,99240.09
2023-12-24T03:43:35.085Z,99239.72
2023-12-24T03:46:01.710Z,99239.00
2023-12-24T03:48:28.482Z,99250.59
2023-12-24T03:50:55.082Z,99262.41
2023-12-24T03:53:21.648Z,99261.59
2023-12-24T03:55:48.226Z,99271.84
2023-12-24T03:58:15.056Z,99268.59
2023-12-24T04:00:41.780Z,99262.16
2023-12-24T04:03:08.456Z,99259.97
2023-12-24T04:05:35.058Z,99257.81
2023-12-24T04:08:01.709Z,99253.28
2023-12-24T04:10:28.279Z,99264.28
2023-12-24T04:12:55.061Z,99269.69
2023-12-24T04:15:21.826Z,99283.63
2023-12-24T04:17:48.543Z,99265.63
2023-12-24T04:20:15.296Z,99244.34
2023-12-24T04:22:41.777Z,99270.13
2023-12-24T04:25:08.481Z,99269.88
2023-12-24T04:27:34.987Z,99306.44
2023-12-24T04:30:01.497Z,99267.44
2023-12-24T04:32:28.143Z,99256.72
2023-12-24T04:34:54.692Z,99257.81
2023-12-24T04:37:21.254Z,99268.59
2023-12-24T04:39:47.770Z,99263.22
2023-12-24T04:42:14.431Z,99236.03
2023-12-24T04:44:41.010Z,99254.59
2023-12-24T04:47:08.010Z,99261.59
2023-12-24T04:49:34.765Z,99271.28
2023-12-24T04:52:01.332Z,99254.06
2023-12-24T04:54:28.510Z,99250.84
2023-12-24T04:56:55.468Z,99240.34
2023-12-24T04:59:22.158Z,99235.25
2023-12-24T05:01:51.743Z,99247.38
2023-12-24T05:04:18.511Z,99238.25
2023-12-24T05:06:45.166Z,99234.75
2023-12-24T05:09:11.708Z,99218.59
2023-12-24T05:11:41.538Z,99226.69
2023-12-24T05:14:08.453Z,99225.06
2023-12-24T05:16:34.994Z,99217.47
2023-12-24T05:19:01.678Z,99218.59
2023-12-24T05:21:30.858Z,99215.91
2023-12-24T05:23:57.799Z,99207.06
2023-12-24T05:26:25.870Z,99181.78
2023-12-24T05:28:55.468Z,99207.81
2023-12-24T05:31:22.061Z,99215.09
2023-12-24T05:33:48.628Z,99209.19
2023-12-24T05:36:15.573Z,99195.19
2023-12-24T05:38:42.392Z,99202.25
2023-12-24T05:41:10.318Z,99187.97
2023-12-24T05:43:37.350Z,99195.50
2023-12-24T05:46:04.585Z,99192.31
2023-12-24T05:48:31.173Z,99188.81
2023-12-24T05:50:57.681Z,99189.91
2023-12-24T05:53:24.205Z,99204.19
2023-12-24T05:55:50.721Z,99203.66
2023-12-24T05:58:19.087Z,99187.25
2023-12-24T06:00:45.653Z,99187.81
2023-12-24T06:03:12.177Z,99183.19
2023-12-24T06:05:38.804Z,99185.41
2023-12-24T06:08:05.754Z,99187.28
2023-12-24T06:10:32.326Z,99179.50
2023-12-24T06:12:58.886Z,99171.97
2023-12-24T06:15:25.455Z,99180.06
2023-12-24T06:17:52.415Z,99171.97
2023-12-24T06:20:19.228Z,99188.63
2023-12-24T06:22:45.811Z,99183.53
2023-12-24T06:25:12.378Z,99188.13
2023-12-24T06:27:38.956Z,99180.59
2023-12-24T06:30:05.784Z,99174.94
2023-12-24T06:32:32.399Z,99176.84
2023-12-24T06:34:59.071Z,99190.81
2023-12-24T06:37:25.607Z,99185.75
2023-12-24T06:39:52.096Z,99177.41
2023-12-24T06:42:18.657Z,99186.84
2023-12-24T06:44:45.205Z,99187.69
2023-12-24T06:47:11.836Z,99180.13
2023-12-24T06:49:42.774Z,99188.22
2023-12-24T06:52:09.252Z,99186.59
2023-12-24T06:54:35.758Z,99183.38
2023-12-24T06:57:02.254Z,99190.09
2023-12-24T06:59:28.852Z,99183.66
2023-12-24T07:01:55.544Z,99200.59
2023-12-24T07:04:24.032Z,99186.13
2023-12-24T07:06:51.951Z,99200.66
2023-12-24T07:09:18.630Z,99187.97
2023-12-24T07:11:45.211Z,99176.44
2023-12-24T07:14:11.891Z,99187.72
2023-12-24T07:16:40.908Z,99195.78
2023-12-24T07:19:09.714Z,99203.06
2023-12-24T07:21:36.269Z,99183.97
2023-12-24T07:24:02.799Z,99175.91
2023-12-24T07:26:29.394Z,99170.53
2023-12-24T07:28:56.023Z,99175.66
2023-12-24T07:31:22.693Z,99166.50
2023-12-24T07:33:49.425Z,99173.22
2023-12-24T07:36:16.030Z,99150.06
2023-12-24T07:38:44.241Z,99158.72
2023-12-24T07:41:12.091Z,99164.34
2023-12-24T07:43:38.698Z,99153.88
2023-12-24T07:46:05.283Z,99161.41
2023-12-24T07:48:31.922Z,99160.88
2023-12-24T07:50:58.588Z,99156.56
2023-12-24T07:53:25.165Z,99156.59
2023-12-24T07:55:51.765Z,99154.97
2023-12-24T07:58:18.447Z,99174.09
2023-12-24T08:00:45.226Z,99154.72
2023-12-24T08:03:11.856Z,99159.88
2023-12-24T08:05:38.546Z,99155.03
2023-12-24T08:08:05.273Z,99139.91
2023-12-24T08:10:31.982Z,99147.72
2023-12-24T08:13:05.284Z,99140.50
2023-12-24T08:15:38.569Z,99142.09
2023-12-24T08:18:05.422Z,99152.38
2023-12-24T08:20:32.149Z,99157.22
2023-12-24T08:22:58.843Z,99163.69
2023-12-24T08:25:25.392Z,99161.28
2023-12-24T08:27:52.826Z,99140.00
2023-12-24T08:30:19.668Z,99115.47
2023-12-24T08:32:47.526Z,99127.06
2023-12-24T08:35:14.422Z,99144.56
2023-12-24T08:37:41.260Z,99143.25
2023-12-24T08:40:08.259Z,99136.03
2023-12-24T08:42:35.081Z,99140.06
2023-12-24T08:45:01.774Z,99148.41
2023-12-24T08:47:28.601Z,99149.78
2023-12-24T08:49:55.344Z,99143.06
2023-12-24T08:52:22.481Z,99138.47
2023-12-24T08:54:49.114Z,99145.78
2023-12-24T08:57:16.261Z,99139.59
2023-12-24T08:59:42.978Z,99163.56
2023-12-24T09:02:09.610Z,99140.09
2023-12-24T09:04:36.263Z,99147.66
2023-12-24T09:07:02.949Z,99125.03
2023-12-24T09:09:29.658Z,99136.34
2023-12-24T09:11:56.188Z,99142.84
2023-12-24T09:14:22.855Z,99139.31
2023-12-24T09:16:49.523Z,99126.38
2023-12-24T09:19:16.300Z,99137.19
2023-12-24T09:21:43.025Z,99134.19
2023-12-24T09:24:09.571Z,99127.22
2023-12-24T09:26:36.752Z,99139.63
2023-12-24T09:29:03.469Z,99128.59
2023-12-24T09:31:30.069Z,99140.19
2023-12-24T09:33:56.754Z,99141.25
2023-12-24T09:36:23.475Z,99136.69
2023-12-24T09:38:50.014Z,99147.47
2023-12-24T09:41:18.412Z,99146.66
2023-12-24T09:43:44.949Z,99160.16
2023-12-24T09:46:11.426Z,99147.75
2023-12-24T09:48:38.040Z,99149.09
2023-12-24T09:51:04.949Z,99141.53
2023-12-24T09:53:32.398Z,99149.91
2023-12-24T09:55:59.883Z,99146.13
2023-12-24T09:58:26.402Z,99140.72
2023-12-24T10:00:53.061Z,99151.00
2023-12-24T10:03:19.642Z,99131.03
2023-12-24T10:06:05.720Z,99141.53
2023-12-24T10:08:32.699Z,99147.22
2023-12-24T10:11:12.669Z,99167.69
2023-12-24T10:13:39.222Z,99152.06
2023-12-24T10:16:06.416Z,99150.97
2023-12-24T10:18:33.726Z,99155.28
2023-12-24T10:21:27.053Z,99134.25
2023-12-24T10:23:53.635Z,99133.69
2023-12-24T10:26:22.046Z,99118.88
2023-12-24T10:28:55.643Z,99128.59
2023-12-24T10:31:28.766Z,99133.72
2023-12-24T10:33:58.849Z,99114.81
2023-12-24T10:36:25.380Z,99115.63
2023-12-24T10:38:51.944Z,99098.63
2023-12-24T10:41:18.524Z,99115.88
2023-12-24T10:43:45.158Z,99099.16
2023-12-24T10:46:11.693Z,99115.34
2023-12-24T10:48:38.301Z,99105.09
2023-12-24T10:51:05.029Z,99123.16
2023-12-24T10:53:31.746Z,99110.50
2023-12-24T10:56:04.011Z,99100.75
2023-12-24T10:58:41.744Z,99083.50
2023-12-24T11:01:09.894Z,99086.72
2023-12-24T11:03:44.351Z,99087.53
2023-12-24T11:06:11.239Z,99097.81
2023-12-24T11:08:37.876Z,99080.50
2023-12-24T11:11:05.839Z,99073.22
2023-12-24T11:13:37.861Z,99073.75
2023-12-24T11:16:07.279Z,99078.91
2023-12-24T11:18:40.749Z,99077.28
2023-12-24T11:21:07.260Z,99068.91
2023-12-24T11:23:33.931Z,99069.16
2023-12-24T11:26:00.696Z,99065.13
2023-12-24T11:28:27.205Z,99062.44
2023-12-24T11:30:53.740Z,99068.38
2023-12-24T11:33:29.630Z,99070.78
2023-12-24T11:35:57.070Z,99074.00
2023-12-24T11:38:35.578Z,99067.00
2023-12-24T11:41:18.333Z,99051.06
2023-12-24T11:43:54.070Z,99048.06
2023-12-24T11:46:21.135Z,99043.50
2023-12-24T11:48:47.839Z,99048.91
2023-12-24T11:51:14.676Z,99038.41
2023-12-24T11:53:41.990Z,99043.22
2023-12-24T11:56:09.711Z,99031.34
2023-12-24T11:58:39.717Z,99029.97
2023-12-24T12:01:06.498Z,99042.16
2023-12-24T12:03:33.912Z,99032.13
2023-12-24T12:06:01.195Z,99028.34
2023-12-24T12:08:31.737Z,99017.56
2023-12-24T12:10:58.876Z,99027.00
2023-12-24T12:13:25.660Z,99022.41
2023-12-24T12:15:52.517Z,99028.91
2023-12-24T12:18:19.714Z,99022.97
2023-12-24T12:20:46.877Z,99020.78
2023-12-24T12:23:17.729Z,99009.19
2023-12-24T12:25:45.174Z,99005.69
2023-12-24T12:28:11.876Z,99019.97
2023-12-24T12:30:38.546Z,99006.75
2023-12-24T12:33:05.367Z,99006.47
2023-12-24T12:35:32.132Z,99001.09
2023-12-24T12:37:58.757Z,98988.38
2023-12-24T12:40:35.610Z,99001.88
2023-12-24T12:43:09.615Z,99000.00
2023-12-24T12:45:37.427Z,99014.56
2023-12-24T12:48:04.416Z,99006.47
2023-12-24T12:50:31.083Z,98984.28
2023-12-24T12:52:58.281Z,98993.22
2023-12-24T12:55:24.785Z,98989.69
2023-12-24T12:57:52.896Z,98981.88
2023-12-24T13:00:21.155Z,98985.91
2023-12-24T13:02:47.960Z,98965.91
2023-12-24T13:05:33.718Z,98970.78
2023-12-24T13:08:01.546Z,98967.78
2023-12-24T13:10:39.609Z,98937.53
2023-12-24T19:03:02.637Z,98861.00
2023-12-24T19:05:29.325Z,98850.44
2023-12-24T19:07:55.991Z,98854.44
2023-12-24T19:10:22.574Z,98863.09
2023-12-24T19:12:49.068Z,98840.13
2023-12-24T19:15:15.588Z,98862.88
2023-12-24T19:17:42.335Z,98849.03
2023-12-24T19:20:09.182Z,98856.28
2023-12-24T19:22:37.158Z,98861.13
2023-12-24T19:25:03.855Z,98861.81
2023-12-24T19:27:30.532Z,98913.13
2023-12-24T19:29:57.042Z,98843.06
2023-12-24T19:32:23.686Z,98850.44
2023-12-24T19:34:50.324Z,98860.03
2023-12-24T19:37:16.843Z,98846.06
2023-12-24T19:39:43.343Z,98855.22
2023-12-24T19:42:09.842Z,98862.44
2023-12-24T19:44:36.395Z,98871.66
2023-12-24T19:47:02.988Z,98878.34
2023-12-24T19:49:29.607Z,98875.63
2023-12-24T19:51:59.131Z,98864.06
2023-12-24T19:54:25.653Z,98897.53
2023-12-24T19:56:53.101Z,98893.50
2023-12-24T19:59:19.807Z,98872.44
2023-12-24T20:01:46.573Z,98874.53
2023-12-24T20:04:13.675Z,98871.84
2023-12-24T20:06:40.638Z,98912.66
2023-12-24T20:09:07.945Z,98882.38
2023-12-24T20:11:34.745Z,98888.31
2023-12-24T20:14:01.381Z,98892.34
2023-12-24T20:16:27.951Z,98901.56
2023-12-24T20:18:54.742Z,98921.63
2023-12-24T20:21:21.366Z,98873.41
2023-12-24T20:23:50.157Z,98887.50
2023-12-24T20:26:16.881Z,98879.28
2023-12-24T20:28:43.561Z,98883.00
2023-12-24T20:31:14.274Z,98886.81
2023-12-24T20:33:47.056Z,98907.91
2023-12-24T20:36:15.972Z,98866.28
2023-12-24T20:38:42.549Z,98896.50
2023-12-24T20:41:09.042Z,98897.88
2023-12-24T20:43:35.570Z,98916.03
2023-12-24T20:46:02.166Z,98889.94
2023-12-24T20:48:28.904Z,98892.09
2023-12-24T20:50:55.842Z,98898.13
2023-12-24T20:53:23.267Z,98897.75
2023-12-24T20:55:49.899Z,98909.38
2023-12-24T20:58:16.471Z,98921.25
2023-12-24T21:00:43.071Z,98911.59
2023-12-24T21:03:09.719Z,98937.03
2023-12-24T21:05:37.302Z,98925.28
2023-12-24T21:08:04.094Z,98915.16
2023-12-24T21:10:31.735Z,98916.06
2023-12-24T21:12:58.293Z,98921.94
2023-12-24T21:15:25.015Z,98910.31
2023-12-24T21:17:53.017Z,98929.84
2023-12-24T21:20:19.602Z,98876.50
2023-12-24T21:22:46.194Z,98925.22
2023-12-24T21:25:12.722Z,98938.22
2023-12-24T21:27:39.267Z,98934.25
2023-12-24T21:30:06.134Z,98932.75
2023-12-24T21:32:32.754Z,98950.97
2023-12-24T21:35:00.704Z,98953.31
2023-12-24T21:37:27.262Z,98935.84
2023-12-24T21:39:53.894Z,98939.78
2023-12-24T21:42:20.391Z,98925.97
2023-12-24T21:44:46.955Z,98975.50
2023-12-24T21:47:13.519Z,98915.97
2023-12-24T21:49:40.091Z,98949.47
2023-12-24T21:52:06.792Z,98917.22
2023-12-24T21:54:35.706Z,98933.19
2023-12-24T21:57:02.817Z,98910.41
2023-12-24T21:59:29.494Z,98929.38
2023-12-24T22:01:56.200Z,98934.72
2023-12-24T22:04:22.952Z,98945.22
2023-12-24T22:06:51.132Z,98942.34
2023-12-24T22:09:17.742Z,98953.97
2023-12-24T22:11:44.415Z,98945.56
2023-12-24T22:14:10.975Z,98960.47
2023-12-24T22:16:38.031Z,98951.66
2023-12-24T22:19:04.672Z,98962.97
2023-12-24T22:21:31.383Z,98981.84
2023-12-24T22:23:58.293Z,98983.75
2023-12-24T22:26:25.055Z,98983.00
2023-12-24T22:28:51.666Z,98998.66
2023-12-24T22:44:11.112Z,98974.69
2023-12-24T22:46:37.897Z,98974.44
2023-12-24T22:49:04.466Z,98969.84
2023-12-24T22:51:31.038Z,99016.25
2023-12-24T22:53:57.639Z,98972.84
2023-12-24T22:56:24.207Z,98952.78
2023-12-24T22:58:50.849Z,99012.34
2023-12-24T23:01:17.483Z,98962.56
2023-12-24T23:03:43.957Z,98963.69
2023-12-24T23:06:11.990Z,98969.94
2023-12-24T23:08:38.776Z,98972.38
2023-12-24T23:11:05.394Z,98964.78
2023-12-24T23:13:32.148Z,98946.19
2023-12-24T23:15:58.812Z,98965.88
2023-12-24T23:18:26.028Z,98969.94
2023-12-24T23:20:52.734Z,98976.09
2023-12-24T23:23:19.347Z,98988.94
2023-12-24T23:25:45.917Z,98947.25
2023-12-24T23:28:12.485Z,98981.56
